Etusivu
METAR-TAF:

METAR-TAF

Lentoasemat :

Uumajan lentoasema

Umeå, Ruotsi

Leveyspiiri: 63-48N, Pituuspiiri: 020-17E, korkeus merenpinnasta: 7 m

Tämänhetkinen sää

Tämä raportti tehtiin 27 minuuttia sitten, kello 19.20 UTC
Tuuli 3 kn lännestä/luoteesta
Lämpötila -7°C
Kosteus 93%
Ilmanpaine 1025 hPa
Näkyvyys 10 km tai enemmän
ei pilviä alle 1500 m:ssä eikä cumulonimbus-pilviä

METAR: ESNU 211920Z 30003KT CAVOK M07/M08 Q1025 R14/39//31

Aika: 20:47 (19:47 UTC)

Sääennuste

Tämä raportti tehtiin 2 tuntia ja 17 minuuttia sitten, kello 17.30 UTC
Ennuste voimassa 21. päivästä klo 18 UTC - 22. päivään klo 03 UTC
Tuuli 5 kn lännestä
Näkyvyys 10 km tai enemmän
ei pilviä alle 1500 m:ssä eikä cumulonimbus-pilviä

TAF: ESNU 211730Z 2118/2203 28005KT CAVOK

Säähavainnot ja -ennusteet yli 4000 lentoasemalta (METAR- ja TAF-raportit).

Käytössä olevat sääasemat on merkitty karttaan keltaisilla ja punaisilla pisteillä.

Aseta hiiri pisteen päälle nähdäksesi sääaseman nimen.

Klikkaa sitten nähdäksesi säähavainnot ja -ennusteet.

Kartan vaihtaminen: klikkaa mustalla rastilla varustettuja vihreitä pisteitä, niin voit zoomata sisään; viivalla varustettua vihreää pistettä, niin voit zoomata ulos tai vihreitä nuolia, niin pääset viereisille kartoille.


METAR-TAF: